createdAt,value
2018-07-11T00:01:10.972Z,98.20
2018-07-11T00:03:49.344Z,98.10
2018-07-11T00:06:19.096Z,98.00
2018-07-11T00:08:47.683Z,98.00
2018-07-11T00:11:16.385Z,98.30
2018-07-11T00:13:45.787Z,98.10
2018-07-11T00:16:14.964Z,97.90
2018-07-11T00:18:43.447Z,98.30
2018-07-11T00:21:12.072Z,98.30
2018-07-11T00:23:40.478Z,98.70
2018-07-11T00:26:10.126Z,98.70
2018-07-11T00:28:38.723Z,98.70
2018-07-11T00:31:07.530Z,98.80
2018-07-11T00:33:36.008Z,98.60
2018-07-11T00:36:04.551Z,98.40
2018-07-11T00:38:32.994Z,98.70
2018-07-11T00:41:02.024Z,99.40
2018-07-11T00:43:32.319Z,99.80
2018-07-11T00:46:02.575Z,99.60
2018-07-11T00:48:31.103Z,99.30
2018-07-11T00:51:00.045Z,99.10
2018-07-11T00:53:32.381Z,99.20
2018-07-11T00:56:01.771Z,99.00
2018-07-11T00:58:34.807Z,98.80
2018-07-11T01:01:15.769Z,99.10
2018-07-11T01:03:53.954Z,99.10
2018-07-11T01:06:22.483Z,99.30
2018-07-11T01:08:59.226Z,99.30
2018-07-11T01:11:36.183Z,99.10
2018-07-11T01:14:05.852Z,99.10
2018-07-11T01:16:34.274Z,99.40
2018-07-11T01:19:06.187Z,99.20
2018-07-11T01:21:35.427Z,99.40
2018-07-11T01:24:04.234Z,99.80
2018-07-11T01:26:36.119Z,99.30
2018-07-11T01:29:05.171Z,99.40
2018-07-11T01:31:33.779Z,99.20
2018-07-11T01:34:02.366Z,99.40
2018-07-11T01:36:31.244Z,99.40
2018-07-11T01:39:00.733Z,99.30
2018-07-11T01:41:29.238Z,98.50
2018-07-11T01:43:57.812Z,98.60
2018-07-11T01:46:32.131Z,99.00
2018-07-11T01:49:00.599Z,98.90
2018-07-11T01:51:40.151Z,98.50
2018-07-11T01:54:08.763Z,98.20
2018-07-11T01:56:37.356Z,98.30
2018-07-11T01:59:05.874Z,98.10
2018-07-11T02:01:34.439Z,98.30
2018-07-11T02:04:02.930Z,99.00
2018-07-11T02:06:31.633Z,98.80
2018-07-11T02:09:00.231Z,98.30
2018-07-11T02:11:28.823Z,98.20
2018-07-11T02:13:57.312Z,97.70
2018-07-11T02:16:25.875Z,97.10
2018-07-11T02:18:54.437Z,97.00
2018-07-11T02:21:25.554Z,96.10
2018-07-11T02:23:54.126Z,96.00
2018-07-11T02:26:22.587Z,96.60
2018-07-11T02:28:51.257Z,96.40
2018-07-11T02:33:47.980Z,96.80
2018-07-11T02:36:16.499Z,96.30
2018-07-11T02:38:44.947Z,95.10
2018-07-11T02:41:13.623Z,94.60
2018-07-11T02:43:42.215Z,94.80
2018-07-11T02:46:10.784Z,94.40
2018-07-11T02:48:39.531Z,94.40
2018-07-11T02:51:08.016Z,94.60
2018-07-11T02:53:36.542Z,94.50
2018-07-11T02:56:05.118Z,95.40
2018-07-11T02:58:33.649Z,95.40
2018-07-11T03:01:02.220Z,95.50
2018-07-11T03:03:30.672Z,95.30
2018-07-11T03:05:59.203Z,96.00
2018-07-11T03:08:35.864Z,96.00
2018-07-11T03:11:05.389Z,96.00
2018-07-11T03:13:34.204Z,96.50
2018-07-11T03:16:02.971Z,96.90
2018-07-11T03:18:31.542Z,97.00
2018-07-11T03:21:00.019Z,97.20
2018-07-11T03:23:28.614Z,97.50
2018-07-11T03:25:57.094Z,97.70
2018-07-11T03:28:25.633Z,97.70
2018-07-11T03:30:54.235Z,97.20
2018-07-11T03:33:22.787Z,97.30
2018-07-11T03:35:51.336Z,97.60
2018-07-11T03:38:19.936Z,97.50
2018-07-11T03:40:48.860Z,97.70
2018-07-11T03:43:17.328Z,98.00
2018-07-11T03:45:45.867Z,97.90
2018-07-11T03:48:14.608Z,97.70
2018-07-11T03:50:44.804Z,98.10
2018-07-11T03:53:13.427Z,98.60
2018-07-11T03:55:41.845Z,98.50
2018-07-11T03:58:10.271Z,98.50
2018-07-11T04:00:38.831Z,98.00
2018-07-11T04:03:07.279Z,98.20
2018-07-11T04:05:35.715Z,98.40
2018-07-11T04:08:04.233Z,98.20
2018-07-11T04:10:32.775Z,98.00
2018-07-11T04:13:02.204Z,98.10
2018-07-11T04:15:30.745Z,98.60
2018-07-11T04:17:59.287Z,98.50
2018-07-11T04:20:27.837Z,98.40
2018-07-11T04:22:57.506Z,98.60
2018-07-11T04:25:26.036Z,98.40
2018-07-11T04:27:54.475Z,98.80
2018-07-11T04:30:23.008Z,99.10
2018-07-11T04:32:51.499Z,99.20
2018-07-11T04:35:20.005Z,98.30
2018-07-11T04:37:48.567Z,98.40
2018-07-11T04:40:17.070Z,97.40
2018-07-11T04:42:50.134Z,96.90
2018-07-11T04:45:18.746Z,96.60
2018-07-11T04:47:47.377Z,96.00
2018-07-11T04:50:15.843Z,95.90
2018-07-11T04:52:44.384Z,95.60
2018-07-11T04:55:12.850Z,95.00
2018-07-11T04:57:41.518Z,95.10
2018-07-11T05:00:09.963Z,95.40
2018-07-11T05:02:38.535Z,95.50
2018-07-11T05:05:07.163Z,95.50
2018-07-11T05:07:35.712Z,95.60
2018-07-11T05:10:04.239Z,95.70
2018-07-11T05:12:32.661Z,95.70
2018-07-11T05:15:01.239Z,95.60
2018-07-11T05:17:29.730Z,95.20
2018-07-11T05:19:58.149Z,94.70
2018-07-11T05:22:26.724Z,94.60
2018-07-11T05:24:55.155Z,94.50
2018-07-11T05:27:23.592Z,93.90
2018-07-11T05:29:52.192Z,93.80
2018-07-11T05:32:20.831Z,93.60
2018-07-11T05:34:49.752Z,93.80
2018-07-11T05:37:18.254Z,93.50
2018-07-11T05:39:46.764Z,93.90
2018-07-11T05:42:15.315Z,94.00
2018-07-11T05:44:43.736Z,94.60
2018-07-11T05:47:12.172Z,93.90
2018-07-11T05:49:40.680Z,93.90
2018-07-11T05:52:09.389Z,93.90
2018-07-11T05:54:37.753Z,93.90
2018-07-11T05:57:06.329Z,93.90
2018-07-11T05:59:34.784Z,93.70
2018-07-11T06:02:03.307Z,92.70
2018-07-11T06:04:31.781Z,92.00
2018-07-11T06:07:00.228Z,92.20
2018-07-11T06:09:28.696Z,92.30
2018-07-11T06:11:57.216Z,92.30
2018-07-11T06:14:25.640Z,92.10
2018-07-11T06:16:54.179Z,91.50
2018-07-11T06:21:51.521Z,90.30
2018-07-11T06:24:20.827Z,90.90
2018-07-11T06:26:49.403Z,87.40
2018-07-11T06:29:17.828Z,85.80
2018-07-11T06:31:46.683Z,86.10
2018-07-11T06:34:15.130Z,84.60
2018-07-11T06:36:43.604Z,85.80
2018-07-11T06:39:12.105Z,85.40
2018-07-11T06:41:40.479Z,85.20
2018-07-11T06:44:08.930Z,85.60
2018-07-11T06:46:37.479Z,85.40
2018-07-11T06:49:05.915Z,84.80
2018-07-11T06:51:34.461Z,83.60
2018-07-11T06:54:02.931Z,82.50
2018-07-11T06:56:31.476Z,83.70
2018-07-11T06:58:59.901Z,83.80
2018-07-11T07:01:28.444Z,84.20
2018-07-11T07:03:56.965Z,85.20
2018-07-11T07:06:25.503Z,82.50
2018-07-11T07:08:53.951Z,83.10
2018-07-11T07:11:22.384Z,82.20
2018-07-11T07:13:50.999Z,81.10
2018-07-11T07:16:20.899Z,80.80
2018-07-11T07:18:49.442Z,80.50
2018-07-11T07:21:18.020Z,80.60
2018-07-11T07:23:46.666Z,80.60
2018-07-11T07:26:15.127Z,81.40
2018-07-11T07:28:43.739Z,79.80
2018-07-11T07:31:12.326Z,79.20
2018-07-11T07:33:40.739Z,77.80
2018-07-11T07:36:09.161Z,75.40
2018-07-11T07:38:40.835Z,73.90
2018-07-11T07:41:09.948Z,75.20
2018-07-11T07:43:39.717Z,74.80
2018-07-11T07:46:08.524Z,77.40
2018-07-11T07:48:37.081Z,76.90
2018-07-11T07:51:05.823Z,75.60
2018-07-11T07:53:34.601Z,75.10
2018-07-11T07:56:03.360Z,74.30
2018-07-11T07:58:31.994Z,74.50
2018-07-11T08:01:00.575Z,75.10
2018-07-11T08:03:29.330Z,72.10
2018-07-11T08:05:57.924Z,71.50
2018-07-11T08:08:26.460Z,72.80
2018-07-11T08:10:55.043Z,72.00
2018-07-11T08:13:23.490Z,71.20
2018-07-11T08:15:53.222Z,70.60
2018-07-11T08:18:21.667Z,68.60
2018-07-11T08:20:50.150Z,70.50
2018-07-11T08:23:33.167Z,68.40
2018-07-11T08:26:12.933Z,68.20
2018-07-11T08:28:54.278Z,66.70
2018-07-11T08:31:35.682Z,65.30
2018-07-11T08:35:36.371Z,63.40
2018-07-11T08:38:16.222Z,62.00
2018-07-11T08:40:57.499Z,61.60
2018-07-11T08:43:35.716Z,60.70
2018-07-11T08:46:31.652Z,61.20
2018-07-11T08:51:16.201Z,62.60
2018-07-11T08:53:55.808Z,63.60
2018-07-11T09:00:45.690Z,65.00
2018-07-11T09:05:37.166Z,65.10
2018-07-11T09:08:50.368Z,66.00
2018-07-11T09:12:28.547Z,65.10
2018-07-11T09:16:07.046Z,63.50
2018-07-11T09:18:47.136Z,63.60
2018-07-11T09:21:26.960Z,64.70
2018-07-11T09:25:03.749Z,63.40
2018-07-11T09:27:32.167Z,65.10
2018-07-11T09:30:00.663Z,65.10
2018-07-11T09:32:29.248Z,64.90
2018-07-11T09:34:57.704Z,64.40
2018-07-11T09:37:26.279Z,63.00
2018-07-11T09:39:54.796Z,63.60
2018-07-11T09:42:23.479Z,64.20
2018-07-11T09:44:52.021Z,65.00
2018-07-11T09:47:25.884Z,65.50
2018-07-11T09:49:54.496Z,66.10
2018-07-11T09:52:22.951Z,64.60
2018-07-11T09:54:51.622Z,61.10
2018-07-11T09:57:20.156Z,60.60
2018-07-11T09:59:48.657Z,62.40
2018-07-11T10:02:17.288Z,63.90
2018-07-11T10:04:45.864Z,62.10
2018-07-11T10:07:14.599Z,64.10
2018-07-11T10:09:43.219Z,64.70
2018-07-11T10:12:11.637Z,64.90
2018-07-11T10:14:41.886Z,66.10
2018-07-11T10:17:10.313Z,63.60
2018-07-11T10:19:38.862Z,65.30
2018-07-11T10:22:07.455Z,63.50
2018-07-11T10:24:36.070Z,63.50
2018-07-11T10:27:04.750Z,61.90
2018-07-11T10:29:33.208Z,60.80
2018-07-11T10:32:01.748Z,60.50
2018-07-11T10:34:30.255Z,62.50
2018-07-11T10:36:58.879Z,62.60
2018-07-11T10:39:27.429Z,63.90
2018-07-11T10:41:55.894Z,64.70
2018-07-11T10:44:25.302Z,66.80
2018-07-11T10:47:28.987Z,65.90
2018-07-11T10:49:57.527Z,66.00
2018-07-11T10:52:25.963Z,66.20
2018-07-11T10:54:54.436Z,65.90
2018-07-11T10:57:23.063Z,65.80
2018-07-11T10:59:51.562Z,64.50
2018-07-11T11:04:50.861Z,64.40
2018-07-11T11:07:19.375Z,63.80
2018-07-11T11:09:48.008Z,62.00
2018-07-11T11:12:16.600Z,61.70
2018-07-11T11:14:45.156Z,63.30
2018-07-11T11:17:13.854Z,59.30
2018-07-11T11:19:42.420Z,58.40
2018-07-11T11:22:10.938Z,57.80
2018-07-11T11:24:39.549Z,57.70
2018-07-11T11:27:08.044Z,55.80
2018-07-11T11:29:36.599Z,57.50
2018-07-11T11:32:05.299Z,57.20
2018-07-11T11:34:33.806Z,58.20
2018-07-11T11:37:02.308Z,60.00
2018-07-11T11:39:31.004Z,60.80
2018-07-11T11:41:59.665Z,61.80
2018-07-11T11:44:28.068Z,63.20
2018-07-11T11:47:01.038Z,64.00
2018-07-11T11:49:32.529Z,64.80
2018-07-11T11:52:01.074Z,65.50
2018-07-11T11:54:29.744Z,64.30
2018-07-11T11:56:58.390Z,64.10
2018-07-11T11:59:26.953Z,65.30
2018-07-11T12:01:55.710Z,67.10
2018-07-11T12:04:24.171Z,67.30
2018-07-11T12:06:52.752Z,66.90
2018-07-11T12:09:21.293Z,66.00
2018-07-11T12:11:49.813Z,65.80
2018-07-11T12:14:19.240Z,66.00
2018-07-11T12:16:47.825Z,64.80
2018-07-11T12:21:44.656Z,64.00
2018-07-11T12:24:13.423Z,63.10
2018-07-11T12:26:41.952Z,62.30
2018-07-11T12:29:10.542Z,61.80
2018-07-11T12:31:38.983Z,62.00
2018-07-11T12:34:07.574Z,61.00
2018-07-11T12:36:36.008Z,61.00
2018-07-11T12:39:04.638Z,59.10
2018-07-11T12:41:33.304Z,59.20
2018-07-11T12:44:02.024Z,61.50
2018-07-11T12:46:30.554Z,62.70
2018-07-11T12:49:03.903Z,63.10
2018-07-11T12:51:33.164Z,62.90
2018-07-11T12:54:02.207Z,63.20
2018-07-11T12:56:30.756Z,63.40
2018-07-11T12:58:59.420Z,63.30
2018-07-11T13:01:28.947Z,62.50
2018-07-11T13:03:58.690Z,60.80
2018-07-11T13:06:28.883Z,60.10
2018-07-11T13:08:57.987Z,60.60
2018-07-11T13:11:26.641Z,62.10
2018-07-11T13:13:55.344Z,59.90
2018-07-11T13:16:24.010Z,57.60
2018-07-11T13:18:52.498Z,57.80
2018-07-11T13:21:21.074Z,56.90
2018-07-11T13:23:49.605Z,57.10
2018-07-11T13:26:18.189Z,58.30
2018-07-11T13:28:46.691Z,58.60
2018-07-11T13:31:15.232Z,57.40
2018-07-11T13:33:43.763Z,58.20
2018-07-11T13:36:12.460Z,58.10
2018-07-11T13:38:41.212Z,57.90
2018-07-11T13:41:09.709Z,59.30
2018-07-11T13:43:38.197Z,59.10
2018-07-11T13:46:06.702Z,57.80
2018-07-11T13:48:35.255Z,59.10
2018-07-11T13:51:03.774Z,60.00
2018-07-11T13:53:32.261Z,58.20
2018-07-11T13:56:00.915Z,58.60
2018-07-11T13:58:29.519Z,58.20
2018-07-11T14:00:58.163Z,58.30
2018-07-11T14:03:26.812Z,58.40
2018-07-11T14:05:55.578Z,58.60
2018-07-11T14:08:24.259Z,58.10
2018-07-11T14:10:53.109Z,58.40
2018-07-11T14:13:21.686Z,59.00
2018-07-11T14:15:50.678Z,58.40
2018-07-11T14:18:19.406Z,58.90
2018-07-11T14:20:48.011Z,59.80
2018-07-11T14:23:26.498Z,57.80
2018-07-11T14:25:55.000Z,56.90
2018-07-11T14:28:23.678Z,56.20
2018-07-11T14:30:52.449Z,55.40
2018-07-11T14:33:22.204Z,54.60
2018-07-11T14:35:51.023Z,54.70
2018-07-11T14:38:19.595Z,56.60
2018-07-11T14:40:48.172Z,57.20
2018-07-11T14:43:16.757Z,58.40
2018-07-11T14:45:45.621Z,58.60
2018-07-11T14:48:16.518Z,58.50
2018-07-11T14:50:45.449Z,56.20
2018-07-11T14:53:15.508Z,55.90
2018-07-11T14:55:44.065Z,55.30
2018-07-11T14:58:12.655Z,55.00
2018-07-11T15:00:41.523Z,50.30
2018-07-11T15:03:10.041Z,49.50
2018-07-11T15:05:39.055Z,44.50
2018-07-11T15:08:07.560Z,40.10
2018-07-11T15:10:36.120Z,35.60
2018-07-11T15:13:04.926Z,37.90
2018-07-11T15:15:33.508Z,34.70
2018-07-11T15:18:02.284Z,35.90
2018-07-11T15:20:30.882Z,32.60
2018-07-11T15:22:59.419Z,34.50
2018-07-11T15:25:28.076Z,33.60
2018-07-11T15:27:56.797Z,37.10
2018-07-11T15:30:25.462Z,39.50
2018-07-11T15:32:54.627Z,40.30
2018-07-11T15:35:24.848Z,38.30
2018-07-11T15:37:53.697Z,36.70
2018-07-11T15:40:22.237Z,35.90
2018-07-11T15:42:51.651Z,32.10
2018-07-11T15:45:20.354Z,30.10
2018-07-11T15:47:50.605Z,29.60
2018-07-11T15:50:19.155Z,28.20
2018-07-11T15:52:48.106Z,28.50
2018-07-11T15:55:16.899Z,28.60
2018-07-11T15:57:51.562Z,30.20
2018-07-11T16:00:22.663Z,34.00
2018-07-11T16:02:51.357Z,36.50
2018-07-11T16:05:21.365Z,41.00
2018-07-11T16:07:52.109Z,42.80
2018-07-11T16:10:28.045Z,44.00
2018-07-11T16:12:56.531Z,44.30
2018-07-11T16:15:25.191Z,46.60
2018-07-11T16:17:53.687Z,47.10
2018-07-11T16:20:22.299Z,48.90
2018-07-11T16:22:51.062Z,48.70
2018-07-11T16:25:19.648Z,48.70
2018-07-11T16:27:48.791Z,49.60
2018-07-11T16:30:17.369Z,47.40
2018-07-11T16:35:14.279Z,47.80
2018-07-11T16:37:43.126Z,47.80
2018-07-11T16:40:11.698Z,47.30
2018-07-11T16:42:40.635Z,41.20
2018-07-11T16:45:09.200Z,36.90
2018-07-11T16:47:37.735Z,35.50
2018-07-11T16:50:06.326Z,33.70
2018-07-11T16:52:34.949Z,30.70
2018-07-11T16:55:03.713Z,30.80
2018-07-11T16:57:44.826Z,29.40
2018-07-11T17:00:13.452Z,30.00
2018-07-11T17:02:43.410Z,30.00
2018-07-11T17:05:15.706Z,32.50
2018-07-11T17:07:52.521Z,35.50
2018-07-11T17:10:22.141Z,39.20
2018-07-11T17:13:07.790Z,41.80
2018-07-11T17:15:38.018Z,43.30
2018-07-11T17:18:08.347Z,45.60
2018-07-11T17:20:36.905Z,46.80
2018-07-11T17:23:09.490Z,48.20
2018-07-11T17:25:40.613Z,49.90
2018-07-11T17:28:09.230Z,50.70
2018-07-11T17:30:40.294Z,50.80
2018-07-11T17:33:10.076Z,50.60
2018-07-11T17:35:50.521Z,51.80
2018-07-11T17:38:27.529Z,49.60
2018-07-11T17:40:57.640Z,47.70
2018-07-11T17:43:41.110Z,47.00
2018-07-11T17:46:09.886Z,46.50
2018-07-11T17:48:43.557Z,45.00
2018-07-11T17:51:48.876Z,44.80
2018-07-11T17:54:17.791Z,43.70
2018-07-11T17:56:55.727Z,44.50
2018-07-11T17:59:45.888Z,45.90
2018-07-11T18:02:21.471Z,46.10
2018-07-11T18:06:03.119Z,47.10
2018-07-11T18:08:50.176Z,48.70
2018-07-11T18:11:18.692Z,50.50
2018-07-11T18:13:52.916Z,51.20
2018-07-11T18:16:39.661Z,52.10
2018-07-11T18:19:21.002Z,52.70
2018-07-11T18:22:00.931Z,53.30
2018-07-11T18:24:38.444Z,53.90
2018-07-11T18:27:16.486Z,55.60
2018-07-11T18:30:26.452Z,55.80
2018-07-11T18:33:19.131Z,57.00
2018-07-11T18:36:11.050Z,57.10
2018-07-11T18:39:23.375Z,57.90
2018-07-11T18:42:03.604Z,58.20
2018-07-11T18:44:41.537Z,58.80
2018-07-11T18:47:23.444Z,61.60
2018-07-11T18:53:46.863Z,67.20
2018-07-11T18:56:34.134Z,68.50
2018-07-11T19:01:21.277Z,71.30
2018-07-11T19:04:54.906Z,73.60
2018-07-11T19:07:59.629Z,75.70
2018-07-11T19:10:39.258Z,77.80
2018-07-11T19:13:17.185Z,79.80
2018-07-11T19:15:50.455Z,80.10
2018-07-11T19:18:26.872Z,81.40
2018-07-11T19:21:10.255Z,82.10
2018-07-11T19:23:58.029Z,82.70
2018-07-11T19:27:05.153Z,84.20
2018-07-11T19:30:08.666Z,86.10
2018-07-11T19:33:47.265Z,87.20
2018-07-11T19:36:41.355Z,87.80
2018-07-11T19:39:16.721Z,88.90
2018-07-11T19:42:56.521Z,89.80
2018-07-11T19:46:05.071Z,89.90
2018-07-11T19:48:45.579Z,90.20
2018-07-11T19:51:36.577Z,90.90
2018-07-11T19:57:18.726Z,90.80
2018-07-11T19:59:47.365Z,91.20
2018-07-11T20:02:16.041Z,91.60
2018-07-11T20:04:44.589Z,91.90
2018-07-11T20:07:13.089Z,92.30
2018-07-11T20:09:41.739Z,92.40
2018-07-11T20:12:11.136Z,92.30
2018-07-11T20:14:39.779Z,92.50
2018-07-11T20:17:08.353Z,92.30
2018-07-11T20:19:38.226Z,92.50
2018-07-11T20:22:06.911Z,92.20
2018-07-11T20:24:35.806Z,92.10
2018-07-11T20:27:04.577Z,92.20
2018-07-11T20:29:33.295Z,92.10
2018-07-11T20:32:01.855Z,91.30
2018-07-11T20:34:30.363Z,90.80
2018-07-11T20:36:58.863Z,90.90
2018-07-11T20:39:27.482Z,91.10
2018-07-11T20:41:56.079Z,91.00
2018-07-11T20:44:24.675Z,90.60
2018-07-11T20:46:53.540Z,90.80
2018-07-11T20:49:27.416Z,90.70
2018-07-11T20:51:57.679Z,91.10
2018-07-11T20:54:26.156Z,91.50
2018-07-11T20:56:54.746Z,91.90
2018-07-11T20:59:34.765Z,92.10
2018-07-11T21:02:14.680Z,92.10
2018-07-11T21:07:01.639Z,91.80
2018-07-11T21:09:45.514Z,91.50
2018-07-11T21:12:29.655Z,92.40
2018-07-11T21:15:10.222Z,92.40
2018-07-11T21:18:45.200Z,92.40
2018-07-11T21:21:13.834Z,92.50
2018-07-11T21:23:42.331Z,92.00
2018-07-11T21:26:10.786Z,92.00
2018-07-11T21:28:39.367Z,91.80
2018-07-11T21:31:08.008Z,92.30
2018-07-11T21:33:36.429Z,92.40
2018-07-11T21:36:05.004Z,92.90
2018-07-11T21:38:33.481Z,93.10
2018-07-11T21:41:01.970Z,93.40
2018-07-11T21:43:30.424Z,93.10
2018-07-11T21:45:58.922Z,93.00
2018-07-11T21:48:28.000Z,92.90
2018-07-11T21:50:56.592Z,92.60
2018-07-11T21:53:25.127Z,93.20
2018-07-11T21:55:53.936Z,93.30
2018-07-11T21:58:22.576Z,93.60
2018-07-11T22:00:51.286Z,94.00
2018-07-11T22:03:19.846Z,94.10
2018-07-11T22:05:48.366Z,94.50
2018-07-11T22:08:16.925Z,94.80
2018-07-11T22:10:45.419Z,94.60
2018-07-11T22:13:13.896Z,95.10
2018-07-11T22:15:42.718Z,95.20
2018-07-11T22:18:22.621Z,95.50
2018-07-11T22:20:49.918Z,95.40
2018-07-11T22:23:17.265Z,95.70
2018-07-11T22:25:44.522Z,95.50
2018-07-11T22:28:11.801Z,95.60
2018-07-11T22:33:06.643Z,95.80
2018-07-11T22:35:34.062Z,95.70
2018-07-11T22:38:01.391Z,95.90
2018-07-11T22:40:28.830Z,96.00
2018-07-11T22:42:56.311Z,95.90
2018-07-11T22:45:23.647Z,95.90
2018-07-11T22:47:50.974Z,95.50
2018-07-11T22:50:18.324Z,95.40
2018-07-11T22:52:45.724Z,95.50
2018-07-11T22:55:13.035Z,95.80
2018-07-11T22:57:40.391Z,96.00
2018-07-11T23:00:08.349Z,96.20
2018-07-11T23:02:35.652Z,96.40
2018-07-11T23:05:02.978Z,96.40
2018-07-11T23:07:30.239Z,96.40
2018-07-11T23:09:57.540Z,96.60
2018-07-11T23:12:24.835Z,96.80
2018-07-11T23:14:52.120Z,96.90
2018-07-11T23:17:19.404Z,97.00
2018-07-11T23:19:46.704Z,96.70
2018-07-11T23:22:14.032Z,96.70
2018-07-11T23:24:41.321Z,96.80
2018-07-11T23:27:08.625Z,96.90
2018-07-11T23:29:35.895Z,96.50
2018-07-11T23:32:03.805Z,96.90
2018-07-11T23:34:31.070Z,96.90
2018-07-11T23:36:58.351Z,96.70
2018-07-11T23:39:25.672Z,96.40
2018-07-11T23:44:20.594Z,96.20
2018-07-11T23:46:47.876Z,95.60
2018-07-11T23:49:15.175Z,95.70
2018-07-11T23:51:42.686Z,95.90
2018-07-11T23:54:10.088Z,96.20
2018-07-11T23:56:37.580Z,96.00
2018-07-11T23:59:04.865Z,96.00
